sensor_id;sensor_type;location;lat;lon;timestamp;P1;durP1;ratioP1;P2;durP2;ratioP2
13461;SDS011;6803;45.264;5.468;2023-05-18T00:00:18;9.00;;;3.07;;
13461;SDS011;6803;45.264;5.468;2023-05-18T00:02:50;6.00;;;2.63;;
13461;SDS011;6803;45.264;5.468;2023-05-18T00:05:21;6.30;;;2.70;;
13461;SDS011;6803;45.264;5.468;2023-05-18T00:07:52;8.07;;;2.77;;
13461;SDS011;6803;45.264;5.468;2023-05-18T00:10:24;4.37;;;2.40;;
13461;SDS011;6803;45.264;5.468;2023-05-18T00:12:55;3.43;;;2.50;;
13461;SDS011;6803;45.264;5.468;2023-05-18T00:15:26;4.70;;;2.40;;
13461;SDS011;6803;45.264;5.468;2023-05-18T00:17:58;4.70;;;2.98;;
13461;SDS011;6803;45.264;5.468;2023-05-18T00:20:29;2.50;;;2.30;;
13461;SDS011;6803;45.264;5.468;2023-05-18T00:23:01;3.33;;;2.47;;
13461;SDS011;6803;45.264;5.468;2023-05-18T00:25:33;4.77;;;2.50;;
13461;SDS011;6803;45.264;5.468;2023-05-18T00:28:04;5.03;;;2.47;;
13461;SDS011;6803;45.264;5.468;2023-05-18T00:30:36;5.90;;;2.90;;
13461;SDS011;6803;45.264;5.468;2023-05-18T00:33:07;5.33;;;2.33;;
13461;SDS011;6803;45.264;5.468;2023-05-18T00:35:38;4.63;;;2.60;;
13461;SDS011;6803;45.264;5.468;2023-05-18T00:38:09;3.80;;;2.80;;
13461;SDS011;6803;45.264;5.468;2023-05-18T00:40:42;5.40;;;2.20;;
13461;SDS011;6803;45.264;5.468;2023-05-18T00:43:13;7.33;;;3.20;;
13461;SDS011;6803;45.264;5.468;2023-05-18T00:45:44;5.67;;;2.83;;
13461;SDS011;6803;45.264;5.468;2023-05-18T00:48:15;4.90;;;2.30;;
13461;SDS011;6803;45.264;5.468;2023-05-18T00:50:46;4.80;;;2.40;;
13461;SDS011;6803;45.264;5.468;2023-05-18T00:53:18;4.33;;;2.57;;
13461;SDS011;6803;45.264;5.468;2023-05-18T00:55:49;5.27;;;2.67;;
13461;SDS011;6803;45.264;5.468;2023-05-18T00:58:20;3.73;;;2.47;;
13461;SDS011;6803;45.264;5.468;2023-05-18T01:00:52;5.03;;;2.47;;
13461;SDS011;6803;45.264;5.468;2023-05-18T01:03:23;5.07;;;2.90;;
13461;SDS011;6803;45.264;5.468;2023-05-18T01:06:04;3.17;;;2.23;;
13461;SDS011;6803;45.264;5.468;2023-05-18T01:08:36;2.90;;;1.90;;
13461;SDS011;6803;45.264;5.468;2023-05-18T01:11:10;2.83;;;2.50;;
13461;SDS011;6803;45.264;5.468;2023-05-18T01:13:46;4.00;;;2.33;;
13461;SDS011;6803;45.264;5.468;2023-05-18T01:16:19;3.27;;;2.40;;
13461;SDS011;6803;45.264;5.468;2023-05-18T01:18:55;4.13;;;2.47;;
13461;SDS011;6803;45.264;5.468;2023-05-18T01:21:35;4.27;;;2.37;;
13461;SDS011;6803;45.264;5.468;2023-05-18T01:24:15;5.70;;;2.67;;
13461;SDS011;6803;45.264;5.468;2023-05-18T01:27:09;3.57;;;2.20;;
13461;SDS011;6803;45.264;5.468;2023-05-18T01:29:49;4.77;;;2.37;;
13461;SDS011;6803;45.264;5.468;2023-05-18T01:32:22;2.87;;;2.07;;
13461;SDS011;6803;45.264;5.468;2023-05-18T01:34:53;3.93;;;2.30;;
13461;SDS011;6803;45.264;5.468;2023-05-18T01:37:25;3.07;;;2.20;;
13461;SDS011;6803;45.264;5.468;2023-05-18T01:39:57;3.70;;;2.40;;
13461;SDS011;6803;45.264;5.468;2023-05-18T01:42:29;3.13;;;2.40;;
13461;SDS011;6803;45.264;5.468;2023-05-18T01:45:05;3.63;;;2.47;;
13461;SDS011;6803;45.264;5.468;2023-05-18T01:47:37;3.80;;;2.23;;
13461;SDS011;6803;45.264;5.468;2023-05-18T01:50:12;5.70;;;2.93;;
13461;SDS011;6803;45.264;5.468;2023-05-18T01:52:47;5.67;;;2.17;;
13461;SDS011;6803;45.264;5.468;2023-05-18T01:55:20;4.10;;;2.70;;
13461;SDS011;6803;45.264;5.468;2023-05-18T01:57:52;4.47;;;2.50;;
13461;SDS011;6803;45.264;5.468;2023-05-18T02:00:24;4.13;;;2.70;;
13461;SDS011;6803;45.264;5.468;2023-05-18T02:02:56;3.83;;;2.60;;
13461;SDS011;6803;45.264;5.468;2023-05-18T02:05:27;4.80;;;2.77;;
13461;SDS011;6803;45.264;5.468;2023-05-18T02:07:59;4.10;;;3.17;;
13461;SDS011;6803;45.264;5.468;2023-05-18T02:10:30;3.60;;;2.53;;
13461;SDS011;6803;45.264;5.468;2023-05-18T02:13:01;4.53;;;2.43;;
13461;SDS011;6803;45.264;5.468;2023-05-18T02:15:32;6.97;;;2.80;;
13461;SDS011;6803;45.264;5.468;2023-05-18T02:18:04;6.63;;;2.83;;
13461;SDS011;6803;45.264;5.468;2023-05-18T02:20:35;4.83;;;2.63;;
13461;SDS011;6803;45.264;5.468;2023-05-18T02:23:08;7.30;;;2.90;;
13461;SDS011;6803;45.264;5.468;2023-05-18T02:25:39;6.30;;;2.73;;
13461;SDS011;6803;45.264;5.468;2023-05-18T02:28:11;5.57;;;2.53;;
13461;SDS011;6803;45.264;5.468;2023-05-18T02:30:42;3.17;;;2.40;;
13461;SDS011;6803;45.264;5.468;2023-05-18T02:33:15;6.37;;;3.37;;
13461;SDS011;6803;45.264;5.468;2023-05-18T02:35:46;4.23;;;3.10;;
13461;SDS011;6803;45.264;5.468;2023-05-18T02:38:17;5.67;;;3.10;;
13461;SDS011;6803;45.264;5.468;2023-05-18T02:40:49;6.47;;;2.93;;
13461;SDS011;6803;45.264;5.468;2023-05-18T02:43:20;6.20;;;3.30;;
13461;SDS011;6803;45.264;5.468;2023-05-18T02:45:51;6.03;;;3.27;;
13461;SDS011;6803;45.264;5.468;2023-05-18T02:48:22;5.87;;;3.07;;
13461;SDS011;6803;45.264;5.468;2023-05-18T02:50:53;4.63;;;2.87;;
13461;SDS011;6803;45.264;5.468;2023-05-18T02:53:26;6.27;;;3.57;;
13461;SDS011;6803;45.264;5.468;2023-05-18T02:55:57;5.67;;;3.37;;
13461;SDS011;6803;45.264;5.468;2023-05-18T02:58:29;6.20;;;3.10;;
13461;SDS011;6803;45.264;5.468;2023-05-18T03:01:01;3.30;;;3.00;;
13461;SDS011;6803;45.264;5.468;2023-05-18T03:03:34;6.03;;;2.73;;
13461;SDS011;6803;45.264;5.468;2023-05-18T03:06:06;4.97;;;2.90;;
13461;SDS011;6803;45.264;5.468;2023-05-18T03:08:37;5.30;;;3.60;;
13461;SDS011;6803;45.264;5.468;2023-05-18T03:11:09;3.87;;;2.90;;
13461;SDS011;6803;45.264;5.468;2023-05-18T03:13:40;5.47;;;3.40;;
13461;SDS011;6803;45.264;5.468;2023-05-18T03:16:11;4.40;;;2.93;;
13461;SDS011;6803;45.264;5.468;2023-05-18T03:18:43;6.57;;;3.27;;
13461;SDS011;6803;45.264;5.468;2023-05-18T03:21:14;6.47;;;3.13;;
13461;SDS011;6803;45.264;5.468;2023-05-18T03:23:45;5.07;;;3.10;;
13461;SDS011;6803;45.264;5.468;2023-05-18T03:26:16;4.60;;;3.10;;
13461;SDS011;6803;45.264;5.468;2023-05-18T03:28:47;4.80;;;2.90;;
13461;SDS011;6803;45.264;5.468;2023-05-18T03:31:19;5.30;;;2.63;;
13461;SDS011;6803;45.264;5.468;2023-05-18T03:33:50;4.73;;;2.77;;
13461;SDS011;6803;45.264;5.468;2023-05-18T03:36:21;6.47;;;2.80;;
13461;SDS011;6803;45.264;5.468;2023-05-18T03:38:54;3.43;;;2.50;;
13461;SDS011;6803;45.264;5.468;2023-05-18T03:41:25;4.97;;;2.73;;
13461;SDS011;6803;45.264;5.468;2023-05-18T03:43:57;5.27;;;3.10;;
13461;SDS011;6803;45.264;5.468;2023-05-18T03:46:28;3.07;;;2.63;;
13461;SDS011;6803;45.264;5.468;2023-05-18T03:48:59;5.43;;;2.47;;
13461;SDS011;6803;45.264;5.468;2023-05-18T03:51:32;8.07;;;2.77;;
13461;SDS011;6803;45.264;5.468;2023-05-18T03:54:03;5.43;;;3.30;;
13461;SDS011;6803;45.264;5.468;2023-05-18T03:56:34;7.83;;;3.40;;
13461;SDS011;6803;45.264;5.468;2023-05-18T03:59:05;5.40;;;3.43;;
13461;SDS011;6803;45.264;5.468;2023-05-18T04:01:37;3.93;;;3.07;;
13461;SDS011;6803;45.264;5.468;2023-05-18T04:04:09;5.03;;;3.77;;
13461;SDS011;6803;45.264;5.468;2023-05-18T04:06:43;9.80;;;4.33;;
13461;SDS011;6803;45.264;5.468;2023-05-18T04:09:16;7.03;;;3.60;;
13461;SDS011;6803;45.264;5.468;2023-05-18T04:11:48;6.77;;;3.10;;
13461;SDS011;6803;45.264;5.468;2023-05-18T04:14:20;6.10;;;3.47;;
13461;SDS011;6803;45.264;5.468;2023-05-18T04:16:51;6.60;;;4.10;;
13461;SDS011;6803;45.264;5.468;2023-05-18T04:19:23;5.43;;;3.83;;
13461;SDS011;6803;45.264;5.468;2023-05-18T04:21:55;5.53;;;3.60;;
13461;SDS011;6803;45.264;5.468;2023-05-18T04:24:26;5.87;;;4.00;;
13461;SDS011;6803;45.264;5.468;2023-05-18T04:26:57;7.17;;;4.00;;
13461;SDS011;6803;45.264;5.468;2023-05-18T04:29:28;6.50;;;3.80;;
13461;SDS011;6803;45.264;5.468;2023-05-18T04:32:00;8.67;;;4.13;;
13461;SDS011;6803;45.264;5.468;2023-05-18T04:34:31;5.53;;;3.57;;
13461;SDS011;6803;45.264;5.468;2023-05-18T04:37:02;5.17;;;3.70;;
13461;SDS011;6803;45.264;5.468;2023-05-18T04:39:34;5.60;;;4.00;;
13461;SDS011;6803;45.264;5.468;2023-05-18T04:42:08;4.37;;;3.27;;
13461;SDS011;6803;45.264;5.468;2023-05-18T04:44:41;6.43;;;3.73;;
13461;SDS011;6803;45.264;5.468;2023-05-18T04:47:12;4.67;;;4.17;;
13461;SDS011;6803;45.264;5.468;2023-05-18T04:49:43;10.47;;;4.53;;
13461;SDS011;6803;45.264;5.468;2023-05-18T04:52:14;7.03;;;4.43;;
13461;SDS011;6803;45.264;5.468;2023-05-18T04:54:45;6.53;;;4.50;;
13461;SDS011;6803;45.264;5.468;2023-05-18T04:57:16;8.13;;;4.30;;
13461;SDS011;6803;45.264;5.468;2023-05-18T04:59:47;7.73;;;4.93;;
13461;SDS011;6803;45.264;5.468;2023-05-18T05:02:20;11.70;;;5.93;;
13461;SDS011;6803;45.264;5.468;2023-05-18T05:04:51;8.53;;;4.73;;
13461;SDS011;6803;45.264;5.468;2023-05-18T05:07:22;9.37;;;4.93;;
13461;SDS011;6803;45.264;5.468;2023-05-18T05:09:53;13.73;;;5.17;;
13461;SDS011;6803;45.264;5.468;2023-05-18T05:12:24;11.17;;;6.30;;
13461;SDS011;6803;45.264;5.468;2023-05-18T05:14:55;14.43;;;6.50;;
13461;SDS011;6803;45.264;5.468;2023-05-18T05:17:26;9.70;;;5.67;;
13461;SDS011;6803;45.264;5.468;2023-05-18T05:20:00;16.53;;;6.17;;
13461;SDS011;6803;45.264;5.468;2023-05-18T05:22:32;12.20;;;5.47;;
13461;SDS011;6803;45.264;5.468;2023-05-18T05:25:05;14.47;;;7.40;;
13461;SDS011;6803;45.264;5.468;2023-05-18T05:27:36;8.33;;;5.63;;
13461;SDS011;6803;45.264;5.468;2023-05-18T05:30:08;11.23;;;4.90;;
13461;SDS011;6803;45.264;5.468;2023-05-18T05:32:40;8.83;;;4.57;;
13461;SDS011;6803;45.264;5.468;2023-05-18T05:35:11;8.47;;;5.00;;
13461;SDS011;6803;45.264;5.468;2023-05-18T05:37:42;10.17;;;4.53;;
13461;SDS011;6803;45.264;5.468;2023-05-18T05:40:13;6.63;;;4.47;;
13461;SDS011;6803;45.264;5.468;2023-05-18T05:42:45;6.47;;;4.77;;
13461;SDS011;6803;45.264;5.468;2023-05-18T05:45:16;10.03;;;4.70;;
13461;SDS011;6803;45.264;5.468;2023-05-18T05:47:48;5.97;;;4.93;;
13461;SDS011;6803;45.264;5.468;2023-05-18T05:50:19;8.37;;;4.57;;
13461;SDS011;6803;45.264;5.468;2023-05-18T05:52:50;7.20;;;4.80;;
13461;SDS011;6803;45.264;5.468;2023-05-18T05:55:22;6.63;;;4.40;;
13461;SDS011;6803;45.264;5.468;2023-05-18T05:58:01;6.93;;;4.60;;
13461;SDS011;6803;45.264;5.468;2023-05-18T06:00:32;9.73;;;4.60;;
13461;SDS011;6803;45.264;5.468;2023-05-18T06:03:04;5.47;;;4.70;;
13461;SDS011;6803;45.264;5.468;2023-05-18T06:05:35;8.73;;;4.33;;
13461;SDS011;6803;45.264;5.468;2023-05-18T06:08:07;9.00;;;4.97;;
13461;SDS011;6803;45.264;5.468;2023-05-18T06:10:38;6.67;;;4.30;;
13461;SDS011;6803;45.264;5.468;2023-05-18T06:13:10;6.87;;;4.60;;
13461;SDS011;6803;45.264;5.468;2023-05-18T06:15:41;6.70;;;4.63;;
13461;SDS011;6803;45.264;5.468;2023-05-18T06:18:12;10.47;;;5.10;;
13461;SDS011;6803;45.264;5.468;2023-05-18T06:20:43;7.53;;;4.73;;
13461;SDS011;6803;45.264;5.468;2023-05-18T06:23:14;7.57;;;4.27;;
13461;SDS011;6803;45.264;5.468;2023-05-18T06:25:48;8.33;;;4.30;;
13461;SDS011;6803;45.264;5.468;2023-05-18T06:28:20;7.53;;;4.23;;
13461;SDS011;6803;45.264;5.468;2023-05-18T06:30:51;5.30;;;4.10;;
13461;SDS011;6803;45.264;5.468;2023-05-18T06:33:23;11.27;;;5.27;;
13461;SDS011;6803;45.264;5.468;2023-05-18T06:35:55;7.13;;;4.60;;
13461;SDS011;6803;45.264;5.468;2023-05-18T06:38:26;8.53;;;4.33;;
13461;SDS011;6803;45.264;5.468;2023-05-18T06:40:57;8.07;;;5.10;;
13461;SDS011;6803;45.264;5.468;2023-05-18T06:43:29;5.77;;;4.77;;
13461;SDS011;6803;45.264;5.468;2023-05-18T06:46:00;7.13;;;4.50;;
13461;SDS011;6803;45.264;5.468;2023-05-18T06:48:31;8.67;;;4.47;;
13461;SDS011;6803;45.264;5.468;2023-05-18T06:51:03;10.60;;;4.80;;
13461;SDS011;6803;45.264;5.468;2023-05-18T06:53:34;9.13;;;5.23;;
13461;SDS011;6803;45.264;5.468;2023-05-18T06:56:05;8.13;;;4.43;;
13461;SDS011;6803;45.264;5.468;2023-05-18T06:58:38;8.70;;;4.70;;
13461;SDS011;6803;45.264;5.468;2023-05-18T07:01:10;6.20;;;4.67;;
13461;SDS011;6803;45.264;5.468;2023-05-18T07:03:41;8.03;;;5.13;;
13461;SDS011;6803;45.264;5.468;2023-05-18T07:06:12;8.80;;;5.30;;
13461;SDS011;6803;45.264;5.468;2023-05-18T07:08:44;7.53;;;4.97;;
13461;SDS011;6803;45.264;5.468;2023-05-18T07:11:16;9.43;;;6.00;;
13461;SDS011;6803;45.264;5.468;2023-05-18T07:13:47;8.27;;;5.37;;
13461;SDS011;6803;45.264;5.468;2023-05-18T07:16:18;9.40;;;5.77;;
13461;SDS011;6803;45.264;5.468;2023-05-18T07:18:49;7.40;;;5.77;;
13461;SDS011;6803;45.264;5.468;2023-05-18T07:21:21;6.70;;;6.00;;
13461;SDS011;6803;45.264;5.468;2023-05-18T07:23:53;7.17;;;5.40;;
13461;SDS011;6803;45.264;5.468;2023-05-18T07:26:25;9.83;;;5.30;;
13461;SDS011;6803;45.264;5.468;2023-05-18T07:28:56;8.67;;;5.37;;
13461;SDS011;6803;45.264;5.468;2023-05-18T07:31:27;6.30;;;4.30;;
13461;SDS011;6803;45.264;5.468;2023-05-18T07:34:00;6.77;;;4.77;;
13461;SDS011;6803;45.264;5.468;2023-05-18T07:36:31;7.10;;;4.80;;
13461;SDS011;6803;45.264;5.468;2023-05-18T07:39:02;9.87;;;4.33;;
13461;SDS011;6803;45.264;5.468;2023-05-18T07:41:33;6.27;;;4.70;;
13461;SDS011;6803;45.264;5.468;2023-05-18T07:44:05;5.37;;;4.57;;
13461;SDS011;6803;45.264;5.468;2023-05-18T07:46:36;8.90;;;4.43;;
13461;SDS011;6803;45.264;5.468;2023-05-18T07:49:07;8.30;;;4.63;;
13461;SDS011;6803;45.264;5.468;2023-05-18T07:51:39;6.23;;;4.50;;
13461;SDS011;6803;45.264;5.468;2023-05-18T07:54:11;6.63;;;4.47;;
13461;SDS011;6803;45.264;5.468;2023-05-18T07:56:42;8.90;;;4.83;;
13461;SDS011;6803;45.264;5.468;2023-05-18T07:59:14;6.57;;;5.23;;
13461;SDS011;6803;45.264;5.468;2023-05-18T08:01:45;6.27;;;4.80;;
13461;SDS011;6803;45.264;5.468;2023-05-18T08:04:16;7.43;;;4.97;;
13461;SDS011;6803;45.264;5.468;2023-05-18T08:06:47;7.53;;;4.97;;
13461;SDS011;6803;45.264;5.468;2023-05-18T08:09:20;8.60;;;5.00;;
13461;SDS011;6803;45.264;5.468;2023-05-18T08:11:51;8.80;;;5.77;;
13461;SDS011;6803;45.264;5.468;2023-05-18T08:14:22;8.07;;;5.57;;
13461;SDS011;6803;45.264;5.468;2023-05-18T08:16:53;8.93;;;5.17;;
13461;SDS011;6803;45.264;5.468;2023-05-18T08:19:25;8.13;;;5.77;;
13461;SDS011;6803;45.264;5.468;2023-05-18T08:21:56;7.50;;;4.97;;
13461;SDS011;6803;45.264;5.468;2023-05-18T08:24:27;5.73;;;4.87;;
13461;SDS011;6803;45.264;5.468;2023-05-18T08:26:59;7.50;;;5.20;;
13461;SDS011;6803;45.264;5.468;2023-05-18T08:29:30;9.90;;;4.80;;
13461;SDS011;6803;45.264;5.468;2023-05-18T08:32:01;8.57;;;5.20;;
13461;SDS011;6803;45.264;5.468;2023-05-18T08:34:35;5.50;;;4.77;;
13461;SDS011;6803;45.264;5.468;2023-05-18T08:37:06;6.67;;;4.33;;
13461;SDS011;6803;45.264;5.468;2023-05-18T08:39:37;6.27;;;4.60;;
13461;SDS011;6803;45.264;5.468;2023-05-18T08:42:10;10.43;;;4.80;;
13461;SDS011;6803;45.264;5.468;2023-05-18T08:44:49;7.40;;;5.10;;
13461;SDS011;6803;45.264;5.468;2023-05-18T08:47:21;8.10;;;5.10;;
13461;SDS011;6803;45.264;5.468;2023-05-18T08:49:54;14.13;;;4.70;;
13461;SDS011;6803;45.264;5.468;2023-05-18T08:52:27;8.80;;;4.40;;
13461;SDS011;6803;45.264;5.468;2023-05-18T08:55:02;8.80;;;4.63;;
13461;SDS011;6803;45.264;5.468;2023-05-18T08:57:37;9.27;;;4.33;;
13461;SDS011;6803;45.264;5.468;2023-05-18T09:00:11;6.10;;;4.23;;
13461;SDS011;6803;45.264;5.468;2023-05-18T09:02:44;5.57;;;4.40;;
13461;SDS011;6803;45.264;5.468;2023-05-18T09:05:18;6.93;;;4.13;;
13461;SDS011;6803;45.264;5.468;2023-05-18T09:07:51;7.80;;;4.63;;
13461;SDS011;6803;45.264;5.468;2023-05-18T09:10:24;7.47;;;5.17;;
13461;SDS011;6803;45.264;5.468;2023-05-18T09:12:56;6.57;;;4.10;;
13461;SDS011;6803;45.264;5.468;2023-05-18T09:15:29;8.43;;;5.20;;
13461;SDS011;6803;45.264;5.468;2023-05-18T09:18:02;14.93;;;5.07;;
13461;SDS011;6803;45.264;5.468;2023-05-18T09:20:33;5.63;;;4.70;;
13461;SDS011;6803;45.264;5.468;2023-05-18T09:23:05;9.07;;;5.00;;
13461;SDS011;6803;45.264;5.468;2023-05-18T09:25:36;8.40;;;5.13;;
13461;SDS011;6803;45.264;5.468;2023-05-18T09:28:11;6.67;;;5.10;;
13461;SDS011;6803;45.264;5.468;2023-05-18T09:30:43;7.97;;;5.10;;
13461;SDS011;6803;45.264;5.468;2023-05-18T09:33:18;6.50;;;4.83;;
13461;SDS011;6803;45.264;5.468;2023-05-18T09:35:50;11.40;;;5.10;;
13461;SDS011;6803;45.264;5.468;2023-05-18T09:38:21;9.63;;;5.30;;
13461;SDS011;6803;45.264;5.468;2023-05-18T09:40:55;10.93;;;5.33;;
13461;SDS011;6803;45.264;5.468;2023-05-18T09:43:27;10.73;;;5.43;;
13461;SDS011;6803;45.264;5.468;2023-05-18T09:45:58;10.53;;;5.20;;
13461;SDS011;6803;45.264;5.468;2023-05-18T09:48:34;8.87;;;5.57;;
13461;SDS011;6803;45.264;5.468;2023-05-18T09:51:07;11.00;;;5.27;;
13461;SDS011;6803;45.264;5.468;2023-05-18T09:53:42;9.33;;;5.73;;
13461;SDS011;6803;45.264;5.468;2023-05-18T09:56:17;5.90;;;4.87;;
13461;SDS011;6803;45.264;5.468;2023-05-18T09:58:48;9.43;;;6.00;;
13461;SDS011;6803;45.264;5.468;2023-05-18T10:01:19;7.90;;;5.20;;
13461;SDS011;6803;45.264;5.468;2023-05-18T10:03:52;9.37;;;5.13;;
13461;SDS011;6803;45.264;5.468;2023-05-18T10:06:26;7.57;;;5.30;;
13461;SDS011;6803;45.264;5.468;2023-05-18T10:08:57;9.90;;;5.63;;
13461;SDS011;6803;45.264;5.468;2023-05-18T10:11:33;9.43;;;5.10;;
13461;SDS011;6803;45.264;5.468;2023-05-18T10:14:06;11.33;;;5.93;;
13461;SDS011;6803;45.264;5.468;2023-05-18T10:19:29;10.40;;;5.60;;
13461;SDS011;6803;45.264;5.468;2023-05-18T10:22:03;6.33;;;5.33;;
13461;SDS011;6803;45.264;5.468;2023-05-18T10:24:36;8.47;;;4.90;;
13461;SDS011;6803;45.264;5.468;2023-05-18T10:27:08;8.73;;;5.40;;
13461;SDS011;6803;45.264;5.468;2023-05-18T10:29:41;8.57;;;5.40;;
13461;SDS011;6803;45.264;5.468;2023-05-18T10:32:14;11.23;;;5.43;;
13461;SDS011;6803;45.264;5.468;2023-05-18T10:34:48;8.43;;;4.87;;
13461;SDS011;6803;45.264;5.468;2023-05-18T10:37:21;7.00;;;5.30;;
13461;SDS011;6803;45.264;5.468;2023-05-18T10:39:55;6.30;;;5.00;;
13461;SDS011;6803;45.264;5.468;2023-05-18T10:42:30;7.47;;;5.30;;
13461;SDS011;6803;45.264;5.468;2023-05-18T10:45:01;8.00;;;5.53;;
13461;SDS011;6803;45.264;5.468;2023-05-18T10:50:18;6.90;;;5.73;;
13461;SDS011;6803;45.264;5.468;2023-05-18T10:52:50;7.43;;;5.30;;
13461;SDS011;6803;45.264;5.468;2023-05-18T10:55:21;6.47;;;5.03;;
13461;SDS011;6803;45.264;5.468;2023-05-18T10:57:55;8.63;;;5.60;;
13461;SDS011;6803;45.264;5.468;2023-05-18T11:00:28;5.90;;;5.17;;
13461;SDS011;6803;45.264;5.468;2023-05-18T11:03:02;8.43;;;6.17;;
13461;SDS011;6803;45.264;5.468;2023-05-18T11:05:42;7.73;;;5.30;;
13461;SDS011;6803;45.264;5.468;2023-05-18T11:08:28;6.87;;;5.10;;
13461;SDS011;6803;45.264;5.468;2023-05-18T11:10:59;7.43;;;5.03;;
13461;SDS011;6803;45.264;5.468;2023-05-18T11:13:37;8.53;;;5.33;;
13461;SDS011;6803;45.264;5.468;2023-05-18T11:16:09;7.13;;;5.20;;
13461;SDS011;6803;45.264;5.468;2023-05-18T11:18:41;9.33;;;5.77;;
13461;SDS011;6803;45.264;5.468;2023-05-18T11:24:32;6.03;;;5.20;;
13461;SDS011;6803;45.264;5.468;2023-05-18T11:27:08;8.07;;;5.50;;
13461;SDS011;6803;45.264;5.468;2023-05-18T11:29:43;8.00;;;5.23;;
13461;SDS011;6803;45.264;5.468;2023-05-18T11:32:21;8.80;;;5.77;;
13461;SDS011;6803;45.264;5.468;2023-05-18T11:34:57;7.47;;;5.70;;
13461;SDS011;6803;45.264;5.468;2023-05-18T11:37:47;10.77;;;6.00;;
13461;SDS011;6803;45.264;5.468;2023-05-18T11:43:24;6.37;;;4.97;;
13461;SDS011;6803;45.264;5.468;2023-05-18T11:45:56;7.50;;;5.40;;
13461;SDS011;6803;45.264;5.468;2023-05-18T11:48:27;6.70;;;5.40;;
13461;SDS011;6803;45.264;5.468;2023-05-18T11:50:59;10.37;;;5.57;;
13461;SDS011;6803;45.264;5.468;2023-05-18T11:53:32;7.20;;;5.60;;
13461;SDS011;6803;45.264;5.468;2023-05-18T11:56:05;6.60;;;4.80;;
13461;SDS011;6803;45.264;5.468;2023-05-18T11:58:47;7.43;;;5.67;;
13461;SDS011;6803;45.264;5.468;2023-05-18T12:01:29;7.33;;;5.33;;
13461;SDS011;6803;45.264;5.468;2023-05-18T12:04:00;6.70;;;4.93;;
13461;SDS011;6803;45.264;5.468;2023-05-18T12:06:34;7.43;;;5.63;;
13461;SDS011;6803;45.264;5.468;2023-05-18T12:09:07;7.97;;;5.63;;
13461;SDS011;6803;45.264;5.468;2023-05-18T12:11:38;8.30;;;5.63;;
13461;SDS011;6803;45.264;5.468;2023-05-18T12:14:10;12.10;;;6.23;;
13461;SDS011;6803;45.264;5.468;2023-05-18T12:16:42;8.03;;;5.70;;
13461;SDS011;6803;45.264;5.468;2023-05-18T12:19:13;8.73;;;5.83;;
13461;SDS011;6803;45.264;5.468;2023-05-18T12:21:46;10.47;;;6.03;;
13461;SDS011;6803;45.264;5.468;2023-05-18T12:24:18;8.13;;;6.07;;
13461;SDS011;6803;45.264;5.468;2023-05-18T12:26:49;8.00;;;5.70;;
13461;SDS011;6803;45.264;5.468;2023-05-18T12:29:20;9.37;;;6.00;;
13461;SDS011;6803;45.264;5.468;2023-05-18T12:31:51;9.80;;;5.97;;
13461;SDS011;6803;45.264;5.468;2023-05-18T12:34:22;9.43;;;6.33;;
13461;SDS011;6803;45.264;5.468;2023-05-18T12:36:58;11.10;;;6.40;;
13461;SDS011;6803;45.264;5.468;2023-05-18T12:39:29;10.33;;;6.20;;
13461;SDS011;6803;45.264;5.468;2023-05-18T12:42:10;7.80;;;5.70;;
13461;SDS011;6803;45.264;5.468;2023-05-18T12:44:43;9.20;;;5.97;;
13461;SDS011;6803;45.264;5.468;2023-05-18T12:47:15;10.20;;;7.10;;
13461;SDS011;6803;45.264;5.468;2023-05-18T12:49:47;9.50;;;6.00;;
13461;SDS011;6803;45.264;5.468;2023-05-18T12:52:19;9.63;;;6.27;;
13461;SDS011;6803;45.264;5.468;2023-05-18T12:54:51;10.53;;;6.27;;
13461;SDS011;6803;45.264;5.468;2023-05-18T12:57:25;8.17;;;5.87;;
13461;SDS011;6803;45.264;5.468;2023-05-18T12:59:58;10.30;;;6.00;;
13461;SDS011;6803;45.264;5.468;2023-05-18T13:02:33;8.73;;;6.30;;
13461;SDS011;6803;45.264;5.468;2023-05-18T13:05:06;9.30;;;6.30;;
13461;SDS011;6803;45.264;5.468;2023-05-18T13:07:40;10.17;;;6.33;;
13461;SDS011;6803;45.264;5.468;2023-05-18T13:10:15;13.93;;;6.33;;
13461;SDS011;6803;45.264;5.468;2023-05-18T13:12:45;8.57;;;6.33;;
13461;SDS011;6803;45.264;5.468;2023-05-18T13:15:18;10.43;;;5.90;;
13461;SDS011;6803;45.264;5.468;2023-05-18T13:17:55;7.40;;;6.17;;
13461;SDS011;6803;45.264;5.468;2023-05-18T13:20:32;7.90;;;5.60;;
13461;SDS011;6803;45.264;5.468;2023-05-18T13:23:06;8.70;;;5.87;;
13461;SDS011;6803;45.264;5.468;2023-05-18T13:25:38;9.33;;;5.90;;
13461;SDS011;6803;45.264;5.468;2023-05-18T13:28:11;8.20;;;5.50;;
13461;SDS011;6803;45.264;5.468;2023-05-18T13:30:44;9.60;;;5.83;;
13461;SDS011;6803;45.264;5.468;2023-05-18T13:33:16;7.33;;;5.07;;
13461;SDS011;6803;45.264;5.468;2023-05-18T13:35:47;10.53;;;5.70;;
13461;SDS011;6803;45.264;5.468;2023-05-18T13:38:17;7.97;;;5.60;;
13461;SDS011;6803;45.264;5.468;2023-05-18T13:40:48;7.67;;;5.80;;
13461;SDS011;6803;45.264;5.468;2023-05-18T13:43:19;6.23;;;5.63;;
13461;SDS011;6803;45.264;5.468;2023-05-18T13:45:49;9.43;;;5.73;;
13461;SDS011;6803;45.264;5.468;2023-05-18T13:48:20;8.97;;;6.30;;
13461;SDS011;6803;45.264;5.468;2023-05-18T13:50:51;10.47;;;5.87;;
13461;SDS011;6803;45.264;5.468;2023-05-18T13:53:22;9.47;;;5.70;;
13461;SDS011;6803;45.264;5.468;2023-05-18T13:55:53;6.43;;;5.60;;
13461;SDS011;6803;45.264;5.468;2023-05-18T13:58:25;8.60;;;6.03;;
13461;SDS011;6803;45.264;5.468;2023-05-18T14:00:56;7.73;;;5.70;;
13461;SDS011;6803;45.264;5.468;2023-05-18T14:03:28;8.27;;;5.57;;
13461;SDS011;6803;45.264;5.468;2023-05-18T14:06:00;8.23;;;6.07;;
13461;SDS011;6803;45.264;5.468;2023-05-18T14:08:32;8.27;;;6.20;;
13461;SDS011;6803;45.264;5.468;2023-05-18T14:11:03;11.10;;;7.00;;
13461;SDS011;6803;45.264;5.468;2023-05-18T14:13:34;9.87;;;6.80;;
13461;SDS011;6803;45.264;5.468;2023-05-18T14:16:05;9.57;;;7.17;;
13461;SDS011;6803;45.264;5.468;2023-05-18T14:18:37;9.07;;;7.33;;
13461;SDS011;6803;45.264;5.468;2023-05-18T14:21:07;9.67;;;7.10;;
13461;SDS011;6803;45.264;5.468;2023-05-18T14:23:38;9.07;;;7.40;;
13461;SDS011;6803;45.264;5.468;2023-05-18T14:26:10;10.93;;;7.73;;
13461;SDS011;6803;45.264;5.468;2023-05-18T14:28:41;13.37;;;7.27;;
13461;SDS011;6803;45.264;5.468;2023-05-18T14:31:12;9.00;;;6.97;;
13461;SDS011;6803;45.264;5.468;2023-05-18T14:36:33;14.83;;;9.08;;
13461;SDS011;6803;45.264;5.468;2023-05-18T14:39:04;10.90;;;8.13;;
13461;SDS011;6803;45.264;5.468;2023-05-18T14:41:35;10.47;;;7.67;;
13461;SDS011;6803;45.264;5.468;2023-05-18T14:44:06;10.10;;;6.87;;
13461;SDS011;6803;45.264;5.468;2023-05-18T14:46:37;12.60;;;7.73;;
13461;SDS011;6803;45.264;5.468;2023-05-18T14:49:08;8.70;;;7.73;;
13461;SDS011;6803;45.264;5.468;2023-05-18T14:51:39;10.17;;;7.10;;
13461;SDS011;6803;45.264;5.468;2023-05-18T14:54:10;16.35;;;8.85;;
13461;SDS011;6803;45.264;5.468;2023-05-18T14:56:40;11.57;;;8.17;;
13461;SDS011;6803;45.264;5.468;2023-05-18T14:59:12;9.93;;;7.57;;
13461;SDS011;6803;45.264;5.468;2023-05-18T15:01:42;9.20;;;7.70;;
13461;SDS011;6803;45.264;5.468;2023-05-18T15:04:13;10.23;;;7.67;;
13461;SDS011;6803;45.264;5.468;2023-05-18T15:06:44;10.70;;;7.37;;
13461;SDS011;6803;45.264;5.468;2023-05-18T15:09:15;10.53;;;7.93;;
13461;SDS011;6803;45.264;5.468;2023-05-18T15:11:45;9.03;;;7.47;;
13461;SDS011;6803;45.264;5.468;2023-05-18T15:14:17;9.40;;;7.07;;
13461;SDS011;6803;45.264;5.468;2023-05-18T15:16:48;8.77;;;6.40;;
13461;SDS011;6803;45.264;5.468;2023-05-18T15:19:19;11.33;;;6.50;;
13461;SDS011;6803;45.264;5.468;2023-05-18T15:21:50;12.55;;;8.20;;
13461;SDS011;6803;45.264;5.468;2023-05-18T15:24:20;9.30;;;6.40;;
13461;SDS011;6803;45.264;5.468;2023-05-18T15:26:51;8.73;;;6.60;;
13461;SDS011;6803;45.264;5.468;2023-05-18T15:29:23;8.13;;;7.00;;
13461;SDS011;6803;45.264;5.468;2023-05-18T15:31:54;9.73;;;7.20;;
13461;SDS011;6803;45.264;5.468;2023-05-18T15:34:25;7.80;;;6.80;;
13461;SDS011;6803;45.264;5.468;2023-05-18T15:36:56;7.80;;;6.70;;
13461;SDS011;6803;45.264;5.468;2023-05-18T15:39:28;12.40;;;7.10;;
13461;SDS011;6803;45.264;5.468;2023-05-18T15:41:59;11.53;;;6.60;;
13461;SDS011;6803;45.264;5.468;2023-05-18T15:44:31;10.43;;;6.90;;